Purdue University Airport
KLAF : now visible

Airfield :











YOU CAN JOIN US ON...

 
LOGIN :

Register | Disclaimer

   EN    FR    IT 

 









Legend :    VFR   Marginal VFR   IFR   Intensive IFR   Very Intensive IFR
Visi :
Ceiling :
>= 8 km
>= 3000ft
5 to 8 km
1000 to 3000 ft
1500m to 5 km
500 to 1000 ft
800 to 1500m
200 to 500 ft
< 800m
< 200 ft
Symbols :   Thunderstorms  Fog  Heavy snow  Heavy precipitations  Wind > 20 kt






- Airport Elevation : 606 ft
- IATA code : LAF


KLAF - Purdue University

CURRENT METAR :
  • 142054Z 28011KT 5SM HZ OVC012 02/M01 A2974 RMK AO2 SLP076 T00171011 53019

EXPIRED METARs :
  • 141954Z 29012KT 5SM HZ OVC013 03/00 A2971 RMK AO2 SLP066 T00280000
  • 141944Z 28011G20KT 5SM HZ BKN015 OVC044 03/01 A2971 RMK AO2 T00330006
  • 141854Z 29008KT 10SM FEW023 OVC046 06/01 A2969 RMK AO2 SLP056 T00610011

TAF KLAF
Valid from the 14 at 20:00 until the 15 at 18:00 UTC


142002Z 1420/1518 29009KT P6SM SCT009 OVC013
FM150400 29010KT P6SM BKN040
FM150600 29009KT P6SM SCT150
FM151400 29005KT P6SM BKN150



MET'MAP, your aeronautical weather chart ! - Copyright ORBIFLY December 2007 - Disclaimer

ORBIFLY MET'MAP TEAM :

Programming & Development : Alexandra Zaïnal
Concept & original design : Baudouin d'Aumeries
Assistance for programming : Marc-Olivier Méhu
Technical & hardware support : Manuel Goepfert

Contact : metmap@orbifly.com




SOURCES & CREDITS :

   NOAA       Earth
Advisory